sensor_id;sensor_type;location;lat;lon;timestamp;temperature;humidity
36548;DHT22;22551;52.206;4.856;2023-05-07T00:01:13;14.60;99.90
36548;DHT22;22551;52.206;4.856;2023-05-07T00:06:16;14.50;99.90
36548;DHT22;22551;52.206;4.856;2023-05-07T00:11:19;14.50;99.90
36548;DHT22;22551;52.206;4.856;2023-05-07T00:16:22;14.40;99.90
36548;DHT22;22551;52.206;4.856;2023-05-07T00:21:25;14.40;99.90
36548;DHT22;22551;52.206;4.856;2023-05-07T00:26:29;14.40;99.90
36548;DHT22;22551;52.206;4.856;2023-05-07T00:31:35;14.40;99.90
36548;DHT22;22551;52.206;4.856;2023-05-07T00:36:40;14.40;99.90
36548;DHT22;22551;52.206;4.856;2023-05-07T00:41:46;14.40;99.90
36548;DHT22;22551;52.206;4.856;2023-05-07T00:46:53;14.40;99.90
36548;DHT22;22551;52.206;4.856;2023-05-07T00:51:55;14.40;99.90
36548;DHT22;22551;52.206;4.856;2023-05-07T00:56:59;14.40;99.90
36548;DHT22;22551;52.206;4.856;2023-05-07T01:02:02;14.50;99.90
36548;DHT22;22551;52.206;4.856;2023-05-07T01:07:05;14.40;99.90
36548;DHT22;22551;52.206;4.856;2023-05-07T01:12:09;14.50;99.90
36548;DHT22;22551;52.206;4.856;2023-05-07T01:17:12;14.40;99.90
36548;DHT22;22551;52.206;4.856;2023-05-07T01:22:15;14.40;99.90
36548;DHT22;22551;52.206;4.856;2023-05-07T01:27:19;14.40;99.90
36548;DHT22;22551;52.206;4.856;2023-05-07T01:32:26;14.40;99.90
36548;DHT22;22551;52.206;4.856;2023-05-07T01:37:31;14.40;99.90
36548;DHT22;22551;52.206;4.856;2023-05-07T01:42:35;14.40;99.90
36548;DHT22;22551;52.206;4.856;2023-05-07T01:47:39;14.40;99.90
36548;DHT22;22551;52.206;4.856;2023-05-07T01:52:41;14.40;99.90
36548;DHT22;22551;52.206;4.856;2023-05-07T01:57:45;14.40;99.90
36548;DHT22;22551;52.206;4.856;2023-05-07T02:02:47;14.40;99.90
36548;DHT22;22551;52.206;4.856;2023-05-07T02:07:49;14.40;99.90
36548;DHT22;22551;52.206;4.856;2023-05-07T02:12:53;14.40;99.90
36548;DHT22;22551;52.206;4.856;2023-05-07T02:17:59;14.40;99.90
36548;DHT22;22551;52.206;4.856;2023-05-07T02:23:02;14.40;99.90
36548;DHT22;22551;52.206;4.856;2023-05-07T02:28:06;14.40;99.90
36548;DHT22;22551;52.206;4.856;2023-05-07T02:33:08;14.40;99.90
36548;DHT22;22551;52.206;4.856;2023-05-07T02:38:13;14.40;99.90
36548;DHT22;22551;52.206;4.856;2023-05-07T02:43:16;14.40;99.90
36548;DHT22;22551;52.206;4.856;2023-05-07T02:48:19;14.40;99.90
36548;DHT22;22551;52.206;4.856;2023-05-07T02:53:21;14.40;99.90
36548;DHT22;22551;52.206;4.856;2023-05-07T02:58:27;14.40;99.90
36548;DHT22;22551;52.206;4.856;2023-05-07T03:03:29;14.40;99.90
36548;DHT22;22551;52.206;4.856;2023-05-07T03:08:32;14.40;99.90
36548;DHT22;22551;52.206;4.856;2023-05-07T03:13:36;14.40;99.90
36548;DHT22;22551;52.206;4.856;2023-05-07T03:18:38;14.40;99.90
36548;DHT22;22551;52.206;4.856;2023-05-07T03:23:40;14.40;99.90
36548;DHT22;22551;52.206;4.856;2023-05-07T03:28:43;14.30;99.90
36548;DHT22;22551;52.206;4.856;2023-05-07T03:33:53;14.30;99.90
36548;DHT22;22551;52.206;4.856;2023-05-07T03:38:55;14.30;99.90
36548;DHT22;22551;52.206;4.856;2023-05-07T03:43:59;14.30;99.90
36548;DHT22;22551;52.206;4.856;2023-05-07T03:49:01;14.30;99.90
36548;DHT22;22551;52.206;4.856;2023-05-07T03:54:03;14.30;99.90
36548;DHT22;22551;52.206;4.856;2023-05-07T03:59:07;14.30;99.90
36548;DHT22;22551;52.206;4.856;2023-05-07T04:04:09;14.30;99.90
36548;DHT22;22551;52.206;4.856;2023-05-07T04:09:11;14.40;99.90
36548;DHT22;22551;52.206;4.856;2023-05-07T04:14:16;14.40;99.90
36548;DHT22;22551;52.206;4.856;2023-05-07T04:19:18;14.40;99.90
36548;DHT22;22551;52.206;4.856;2023-05-07T04:24:31;14.40;99.90
36548;DHT22;22551;52.206;4.856;2023-05-07T04:29:35;14.40;99.90
36548;DHT22;22551;52.206;4.856;2023-05-07T04:34:37;14.50;99.90
36548;DHT22;22551;52.206;4.856;2023-05-07T04:39:39;14.50;99.90
36548;DHT22;22551;52.206;4.856;2023-05-07T04:44:44;14.50;99.90
36548;DHT22;22551;52.206;4.856;2023-05-07T04:49:46;14.50;99.90
36548;DHT22;22551;52.206;4.856;2023-05-07T04:54:49;14.50;99.90
36548;DHT22;22551;52.206;4.856;2023-05-07T04:59:52;14.50;99.90
36548;DHT22;22551;52.206;4.856;2023-05-07T05:04:55;14.50;99.90
36548;DHT22;22551;52.206;4.856;2023-05-07T05:09:59;14.50;99.90
36548;DHT22;22551;52.206;4.856;2023-05-07T05:15:07;14.50;99.90
36548;DHT22;22551;52.206;4.856;2023-05-07T05:20:11;14.50;99.90
36548;DHT22;22551;52.206;4.856;2023-05-07T05:25:13;14.50;99.90
36548;DHT22;22551;52.206;4.856;2023-05-07T05:30:17;14.60;99.90
36548;DHT22;22551;52.206;4.856;2023-05-07T05:35:19;14.70;99.90
36548;DHT22;22551;52.206;4.856;2023-05-07T05:40:21;14.80;99.90
36548;DHT22;22551;52.206;4.856;2023-05-07T05:45:26;14.80;99.90
36548;DHT22;22551;52.206;4.856;2023-05-07T05:50:28;14.80;99.90
36548;DHT22;22551;52.206;4.856;2023-05-07T05:55:30;14.90;99.90
36548;DHT22;22551;52.206;4.856;2023-05-07T06:00:35;15.00;99.90
36548;DHT22;22551;52.206;4.856;2023-05-07T06:05:37;15.00;99.90
36548;DHT22;22551;52.206;4.856;2023-05-07T06:10:39;15.10;99.90
36548;DHT22;22551;52.206;4.856;2023-05-07T06:15:43;15.00;99.90
36548;DHT22;22551;52.206;4.856;2023-05-07T06:20:45;15.00;99.90
36548;DHT22;22551;52.206;4.856;2023-05-07T06:25:48;14.90;99.90
36548;DHT22;22551;52.206;4.856;2023-05-07T06:30:53;15.00;99.90
36548;DHT22;22551;52.206;4.856;2023-05-07T06:35:55;15.00;99.90
36548;DHT22;22551;52.206;4.856;2023-05-07T06:40:58;15.10;99.90
36548;DHT22;22551;52.206;4.856;2023-05-07T06:46:01;15.20;99.90
36548;DHT22;22551;52.206;4.856;2023-05-07T06:51:04;15.20;99.90
36548;DHT22;22551;52.206;4.856;2023-05-07T06:56:09;15.30;99.90
36548;DHT22;22551;52.206;4.856;2023-05-07T07:01:13;15.30;99.90
36548;DHT22;22551;52.206;4.856;2023-05-07T07:06:15;15.50;99.90
36548;DHT22;22551;52.206;4.856;2023-05-07T07:11:18;15.70;99.90
36548;DHT22;22551;52.206;4.856;2023-05-07T07:16:22;16.10;99.90
36548;DHT22;22551;52.206;4.856;2023-05-07T07:21:25;16.30;99.90
36548;DHT22;22551;52.206;4.856;2023-05-07T07:26:27;16.40;99.90
36548;DHT22;22551;52.206;4.856;2023-05-07T07:31:31;16.50;99.90
36548;DHT22;22551;52.206;4.856;2023-05-07T07:36:33;16.70;99.90
36548;DHT22;22551;52.206;4.856;2023-05-07T07:41:35;16.70;99.90
36548;DHT22;22551;52.206;4.856;2023-05-07T07:46:39;16.80;99.90
36548;DHT22;22551;52.206;4.856;2023-05-07T07:51:41;16.90;99.90
36548;DHT22;22551;52.206;4.856;2023-05-07T07:56:43;16.90;99.90
36548;DHT22;22551;52.206;4.856;2023-05-07T08:01:47;16.80;99.90
36548;DHT22;22551;52.206;4.856;2023-05-07T08:07:03;16.90;99.90
36548;DHT22;22551;52.206;4.856;2023-05-07T08:12:05;17.10;99.90
36548;DHT22;22551;52.206;4.856;2023-05-07T08:17:09;17.50;99.90
36548;DHT22;22551;52.206;4.856;2023-05-07T08:22:11;17.80;99.90
36548;DHT22;22551;52.206;4.856;2023-05-07T08:27:14;18.20;99.90
36548;DHT22;22551;52.206;4.856;2023-05-07T08:32:17;18.50;99.90
36548;DHT22;22551;52.206;4.856;2023-05-07T08:37:20;19.30;99.90
36548;DHT22;22551;52.206;4.856;2023-05-07T08:42:38;19.90;99.90
36548;DHT22;22551;52.206;4.856;2023-05-07T08:47:46;20.00;99.90
36548;DHT22;22551;52.206;4.856;2023-05-07T08:52:49;20.10;99.90
36548;DHT22;22551;52.206;4.856;2023-05-07T08:57:51;20.40;99.90
36548;DHT22;22551;52.206;4.856;2023-05-07T09:02:56;20.20;99.90
36548;DHT22;22551;52.206;4.856;2023-05-07T09:07:59;20.50;99.90
36548;DHT22;22551;52.206;4.856;2023-05-07T09:13:03;20.90;99.90
36548;DHT22;22551;52.206;4.856;2023-05-07T09:18:07;20.80;99.90
36548;DHT22;22551;52.206;4.856;2023-05-07T09:23:09;20.70;99.90
36548;DHT22;22551;52.206;4.856;2023-05-07T09:48:57;20.50;99.90
36548;DHT22;22551;52.206;4.856;2023-05-07T09:54:00;20.50;99.90
36548;DHT22;22551;52.206;4.856;2023-05-07T09:59:05;20.80;99.90
36548;DHT22;22551;52.206;4.856;2023-05-07T10:04:12;20.90;99.90
36548;DHT22;22551;52.206;4.856;2023-05-07T10:09:15;21.20;99.90
36548;DHT22;22551;52.206;4.856;2023-05-07T10:14:19;21.50;99.90
36548;DHT22;22551;52.206;4.856;2023-05-07T10:19:23;21.70;99.90
36548;DHT22;22551;52.206;4.856;2023-05-07T10:24:29;21.80;99.90
36548;DHT22;22551;52.206;4.856;2023-05-07T10:29:38;21.70;99.90
36548;DHT22;22551;52.206;4.856;2023-05-07T10:34:50;21.80;99.90
36548;DHT22;22551;52.206;4.856;2023-05-07T10:39:56;21.70;99.90
36548;DHT22;22551;52.206;4.856;2023-05-07T10:45:11;21.90;99.90
36548;DHT22;22551;52.206;4.856;2023-05-07T10:50:22;22.40;99.90
36548;DHT22;22551;52.206;4.856;2023-05-07T10:55:25;22.80;99.90
36548;DHT22;22551;52.206;4.856;2023-05-07T11:00:43;23.10;99.90
36548;DHT22;22551;52.206;4.856;2023-05-07T11:05:46;22.90;99.90
36548;DHT22;22551;52.206;4.856;2023-05-07T11:10:52;22.80;99.90
36548;DHT22;22551;52.206;4.856;2023-05-07T11:15:55;22.80;99.90
36548;DHT22;22551;52.206;4.856;2023-05-07T11:21:00;22.70;99.90
36548;DHT22;22551;52.206;4.856;2023-05-07T11:26:06;22.80;99.90
36548;DHT22;22551;52.206;4.856;2023-05-07T11:31:10;22.40;99.90
36548;DHT22;22551;52.206;4.856;2023-05-07T11:36:14;22.40;99.90
36548;DHT22;22551;52.206;4.856;2023-05-07T11:41:17;23.20;99.90
36548;DHT22;22551;52.206;4.856;2023-05-07T11:46:21;23.00;99.90
36548;DHT22;22551;52.206;4.856;2023-05-07T11:51:25;23.30;99.90
36548;DHT22;22551;52.206;4.856;2023-05-07T11:56:28;24.20;99.90
36548;DHT22;22551;52.206;4.856;2023-05-07T12:01:30;23.40;99.90
36548;DHT22;22551;52.206;4.856;2023-05-07T12:06:36;23.10;99.90
36548;DHT22;22551;52.206;4.856;2023-05-07T12:11:39;22.80;99.90
36548;DHT22;22551;52.206;4.856;2023-05-07T12:16:42;22.90;99.90
36548;DHT22;22551;52.206;4.856;2023-05-07T12:21:46;23.10;99.90
36548;DHT22;22551;52.206;4.856;2023-05-07T12:26:48;23.50;99.90
36548;DHT22;22551;52.206;4.856;2023-05-07T12:31:51;24.50;99.90
36548;DHT22;22551;52.206;4.856;2023-05-07T12:36:55;24.20;99.90
36548;DHT22;22551;52.206;4.856;2023-05-07T12:41:58;23.80;99.90
36548;DHT22;22551;52.206;4.856;2023-05-07T12:47:02;23.70;99.90
36548;DHT22;22551;52.206;4.856;2023-05-07T12:52:06;23.40;99.90
36548;DHT22;22551;52.206;4.856;2023-05-07T12:57:26;23.40;99.90
36548;DHT22;22551;52.206;4.856;2023-05-07T13:02:32;24.00;99.90
36548;DHT22;22551;52.206;4.856;2023-05-07T13:07:52;23.70;99.90
36548;DHT22;22551;52.206;4.856;2023-05-07T13:12:55;24.00;99.90
36548;DHT22;22551;52.206;4.856;2023-05-07T13:17:57;24.20;99.90
36548;DHT22;22551;52.206;4.856;2023-05-07T13:23:00;24.10;99.90
36548;DHT22;22551;52.206;4.856;2023-05-07T13:28:04;24.00;99.90
36548;DHT22;22551;52.206;4.856;2023-05-07T13:33:07;23.70;99.90
36548;DHT22;22551;52.206;4.856;2023-05-07T13:38:10;23.40;99.90
36548;DHT22;22551;52.206;4.856;2023-05-07T13:43:13;22.90;99.90
36548;DHT22;22551;52.206;4.856;2023-05-07T13:48:15;22.80;99.90
36548;DHT22;22551;52.206;4.856;2023-05-07T13:53:19;22.00;99.90
36548;DHT22;22551;52.206;4.856;2023-05-07T13:58:22;21.00;99.90
36548;DHT22;22551;52.206;4.856;2023-05-07T14:03:24;19.70;99.90
36548;DHT22;22551;52.206;4.856;2023-05-07T14:08:29;19.20;99.90
36548;DHT22;22551;52.206;4.856;2023-05-07T14:13:32;19.00;99.90
36548;DHT22;22551;52.206;4.856;2023-05-07T14:18:34;18.30;99.90
36548;DHT22;22551;52.206;4.856;2023-05-07T14:23:38;17.60;99.90
36548;DHT22;22551;52.206;4.856;2023-05-07T14:28:43;17.20;99.90
36548;DHT22;22551;52.206;4.856;2023-05-07T14:33:46;17.30;99.90
36548;DHT22;22551;52.206;4.856;2023-05-07T14:38:52;17.30;99.90
36548;DHT22;22551;52.206;4.856;2023-05-07T14:43:54;17.10;99.90
36548;DHT22;22551;52.206;4.856;2023-05-07T14:48:57;17.40;99.90
36548;DHT22;22551;52.206;4.856;2023-05-07T14:54:00;17.60;99.90
36548;DHT22;22551;52.206;4.856;2023-05-07T14:59:03;19.10;99.90
36548;DHT22;22551;52.206;4.856;2023-05-07T15:04:05;18.50;99.90
36548;DHT22;22551;52.206;4.856;2023-05-07T15:09:09;18.10;99.90
36548;DHT22;22551;52.206;4.856;2023-05-07T15:14:11;17.90;99.90
36548;DHT22;22551;52.206;4.856;2023-05-07T15:19:13;17.70;99.90
36548;DHT22;22551;52.206;4.856;2023-05-07T15:24:18;17.70;99.90
36548;DHT22;22551;52.206;4.856;2023-05-07T15:29:21;17.60;99.90
36548;DHT22;22551;52.206;4.856;2023-05-07T15:34:24;17.50;99.90
36548;DHT22;22551;52.206;4.856;2023-05-07T15:39:30;17.50;99.90
36548;DHT22;22551;52.206;4.856;2023-05-07T15:44:32;17.50;99.90
36548;DHT22;22551;52.206;4.856;2023-05-07T15:49:36;17.40;99.90
36548;DHT22;22551;52.206;4.856;2023-05-07T15:54:41;17.80;99.90
36548;DHT22;22551;52.206;4.856;2023-05-07T15:59:44;18.30;99.90
36548;DHT22;22551;52.206;4.856;2023-05-07T16:04:48;18.30;99.90
36548;DHT22;22551;52.206;4.856;2023-05-07T16:09:52;19.00;99.90
36548;DHT22;22551;52.206;4.856;2023-05-07T16:14:54;19.00;99.90
36548;DHT22;22551;52.206;4.856;2023-05-07T16:19:57;19.10;99.90
36548;DHT22;22551;52.206;4.856;2023-05-07T16:25:00;19.00;99.90
36548;DHT22;22551;52.206;4.856;2023-05-07T16:30:06;18.70;99.90
36548;DHT22;22551;52.206;4.856;2023-05-07T16:35:10;18.70;99.90
36548;DHT22;22551;52.206;4.856;2023-05-07T16:40:14;19.00;99.90
36548;DHT22;22551;52.206;4.856;2023-05-07T16:45:17;18.80;99.90
36548;DHT22;22551;52.206;4.856;2023-05-07T16:50:19;18.70;99.90
36548;DHT22;22551;52.206;4.856;2023-05-07T16:55:23;18.60;99.90
36548;DHT22;22551;52.206;4.856;2023-05-07T17:00:25;18.10;99.90
36548;DHT22;22551;52.206;4.856;2023-05-07T17:05:29;18.50;99.90
36548;DHT22;22551;52.206;4.856;2023-05-07T17:10:32;18.50;99.90
36548;DHT22;22551;52.206;4.856;2023-05-07T17:15:34;18.50;99.90
36548;DHT22;22551;52.206;4.856;2023-05-07T17:20:37;18.60;99.90
36548;DHT22;22551;52.206;4.856;2023-05-07T17:25:41;18.30;99.90
36548;DHT22;22551;52.206;4.856;2023-05-07T17:30:47;17.70;99.90
36548;DHT22;22551;52.206;4.856;2023-05-07T17:35:49;17.60;99.90
36548;DHT22;22551;52.206;4.856;2023-05-07T17:40:55;17.70;99.90
36548;DHT22;22551;52.206;4.856;2023-05-07T17:45:58;17.90;99.90
36548;DHT22;22551;52.206;4.856;2023-05-07T17:51:01;17.80;99.90
36548;DHT22;22551;52.206;4.856;2023-05-07T17:56:05;17.70;99.90
36548;DHT22;22551;52.206;4.856;2023-05-07T18:01:07;17.30;99.90
36548;DHT22;22551;52.206;4.856;2023-05-07T18:06:10;17.10;99.90
36548;DHT22;22551;52.206;4.856;2023-05-07T18:11:18;17.10;99.90
36548;DHT22;22551;52.206;4.856;2023-05-07T18:16:22;17.30;99.90
36548;DHT22;22551;52.206;4.856;2023-05-07T18:21:24;17.50;99.90
36548;DHT22;22551;52.206;4.856;2023-05-07T18:26:28;17.50;99.90
36548;DHT22;22551;52.206;4.856;2023-05-07T18:31:30;17.60;99.90
36548;DHT22;22551;52.206;4.856;2023-05-07T18:36:32;17.60;99.90
36548;DHT22;22551;52.206;4.856;2023-05-07T18:41:36;17.60;99.90
36548;DHT22;22551;52.206;4.856;2023-05-07T18:46:38;17.70;99.90
36548;DHT22;22551;52.206;4.856;2023-05-07T18:51:43;17.60;99.90
36548;DHT22;22551;52.206;4.856;2023-05-07T18:56:47;17.60;99.90
36548;DHT22;22551;52.206;4.856;2023-05-07T19:01:49;17.40;99.90
36548;DHT22;22551;52.206;4.856;2023-05-07T19:06:51;17.30;99.90
36548;DHT22;22551;52.206;4.856;2023-05-07T19:11:56;17.20;99.90
36548;DHT22;22551;52.206;4.856;2023-05-07T19:16:59;17.10;99.90
36548;DHT22;22551;52.206;4.856;2023-05-07T19:22:01;16.90;99.90
36548;DHT22;22551;52.206;4.856;2023-05-07T19:27:05;16.80;99.90
36548;DHT22;22551;52.206;4.856;2023-05-07T19:32:08;16.70;99.90
36548;DHT22;22551;52.206;4.856;2023-05-07T19:37:11;16.60;99.90
36548;DHT22;22551;52.206;4.856;2023-05-07T19:42:15;16.40;99.90
36548;DHT22;22551;52.206;4.856;2023-05-07T19:47:17;16.30;99.90
36548;DHT22;22551;52.206;4.856;2023-05-07T19:52:23;16.20;99.90
36548;DHT22;22551;52.206;4.856;2023-05-07T19:57:29;16.10;99.90
36548;DHT22;22551;52.206;4.856;2023-05-07T20:02:34;15.90;99.90
36548;DHT22;22551;52.206;4.856;2023-05-07T20:07:37;15.80;99.90
36548;DHT22;22551;52.206;4.856;2023-05-07T20:12:41;15.70;99.90
36548;DHT22;22551;52.206;4.856;2023-05-07T20:17:43;15.70;99.90
36548;DHT22;22551;52.206;4.856;2023-05-07T20:22:45;15.60;99.90
36548;DHT22;22551;52.206;4.856;2023-05-07T20:27:49;15.60;99.90
36548;DHT22;22551;52.206;4.856;2023-05-07T20:32:56;15.50;99.90
36548;DHT22;22551;52.206;4.856;2023-05-07T20:37:58;15.40;99.90
36548;DHT22;22551;52.206;4.856;2023-05-07T20:43:03;15.30;99.90
36548;DHT22;22551;52.206;4.856;2023-05-07T20:48:06;15.30;99.90
36548;DHT22;22551;52.206;4.856;2023-05-07T20:53:10;15.10;99.90
36548;DHT22;22551;52.206;4.856;2023-05-07T20:58:14;15.10;99.90
36548;DHT22;22551;52.206;4.856;2023-05-07T21:03:16;15.00;99.90
36548;DHT22;22551;52.206;4.856;2023-05-07T21:08:21;14.90;99.90
36548;DHT22;22551;52.206;4.856;2023-05-07T21:13:25;14.70;99.90
36548;DHT22;22551;52.206;4.856;2023-05-07T21:18:27;14.70;99.90
36548;DHT22;22551;52.206;4.856;2023-05-07T21:23:30;14.60;99.90
36548;DHT22;22551;52.206;4.856;2023-05-07T21:28:34;14.50;99.90
36548;DHT22;22551;52.206;4.856;2023-05-07T21:33:38;14.50;99.90
36548;DHT22;22551;52.206;4.856;2023-05-07T21:38:43;14.40;99.90
36548;DHT22;22551;52.206;4.856;2023-05-07T21:43:47;14.30;99.90
36548;DHT22;22551;52.206;4.856;2023-05-07T21:48:49;14.30;99.90
36548;DHT22;22551;52.206;4.856;2023-05-07T21:53:51;14.20;99.90
36548;DHT22;22551;52.206;4.856;2023-05-07T21:58:57;14.20;99.90
36548;DHT22;22551;52.206;4.856;2023-05-07T22:03:59;14.10;99.90
36548;DHT22;22551;52.206;4.856;2023-05-07T22:09:01;14.10;99.90
36548;DHT22;22551;52.206;4.856;2023-05-07T22:14:05;14.00;99.90
36548;DHT22;22551;52.206;4.856;2023-05-07T22:19:07;13.90;99.90
36548;DHT22;22551;52.206;4.856;2023-05-07T22:24:10;13.90;99.90
36548;DHT22;22551;52.206;4.856;2023-05-07T22:29:13;13.80;99.90
36548;DHT22;22551;52.206;4.856;2023-05-07T22:34:15;13.80;99.90
36548;DHT22;22551;52.206;4.856;2023-05-07T22:39:18;13.80;99.90
36548;DHT22;22551;52.206;4.856;2023-05-07T22:44:21;13.80;99.90
36548;DHT22;22551;52.206;4.856;2023-05-07T22:49:24;13.80;99.90
36548;DHT22;22551;52.206;4.856;2023-05-07T22:54:26;13.80;99.90
36548;DHT22;22551;52.206;4.856;2023-05-07T22:59:29;13.80;99.90
36548;DHT22;22551;52.206;4.856;2023-05-07T23:04:32;13.70;99.90
36548;DHT22;22551;52.206;4.856;2023-05-07T23:09:34;13.70;99.90
36548;DHT22;22551;52.206;4.856;2023-05-07T23:14:37;13.70;99.90
36548;DHT22;22551;52.206;4.856;2023-05-07T23:19:40;13.70;99.90
36548;DHT22;22551;52.206;4.856;2023-05-07T23:24:42;13.70;99.90
36548;DHT22;22551;52.206;4.856;2023-05-07T23:29:46;13.60;99.90
36548;DHT22;22551;52.206;4.856;2023-05-07T23:34:49;13.50;99.90
36548;DHT22;22551;52.206;4.856;2023-05-07T23:39:53;13.40;99.90
36548;DHT22;22551;52.206;4.856;2023-05-07T23:44:56;13.30;99.90
36548;DHT22;22551;52.206;4.856;2023-05-07T23:49:58;13.30;99.90
36548;DHT22;22551;52.206;4.856;2023-05-07T23:55:01;13.30;99.90
